This is the latest recevied weather packets stored in our database for station/object DL5TW-13. If no packets are shown the sender has not sent any weather packets the latest 10 day(s).
| Time | Temp. | Humidity | Pressure | Rain* | Wind** | Luminosity | Snow |
|---|---|---|---|---|---|---|---|
| 1777708534 | 22.22° C | 34% | 1017.9 hPa | 0 mm | - | - | - |
| 1777708234 | 22.78° C | 34% | 1017.9 hPa | 0 mm | - | - | - |
| 1777707934 | 22.78° C | 34% | 1017.9 hPa | 0 mm | - | - | - |
| 1777707633 | 22.78° C | 34% | 1017.9 hPa | 0 mm | - | - | - |
| 1777707333 | 22.78° C | 34% | 1017.8 hPa | 0 mm | - | - | - |
| 1777707033 | 22.22° C | 37% | 1017.8 hPa | 0 mm | - | - | - |
| 1777706733 | 22.22° C | 37% | 1017.9 hPa | 0 mm | - | - | - |
| 1777706432 | 21.67° C | 38% | 1017.8 hPa | 0 mm | - | - | - |
| 1777706132 | 21.11° C | 38% | 1017.9 hPa | 0 mm | - | - | - |
| 1777705832 | 21.11° C | 39% | 1018 hPa | 0 mm | - | - | - |
| 1777705532 | 20.56° C | 39% | 1018 hPa | 0 mm | - | - | - |
| 1777705231 | 20.56° C | 41% | 1018 hPa | 0 mm | - | - | - |
| 1777704931 | 20° C | 40% | 1018 hPa | 0 mm | - | - | - |
| 1777704631 | 20° C | 41% | 1018.1 hPa | 0 mm | - | - | - |
| 1777704330 | 20° C | 43% | 1018 hPa | 0 mm | - | - | - |
| 1777704030 | 19.44° C | 43% | 1018.1 hPa | 0 mm | - | - | - |
| 1777703730 | 18.89° C | 45% | 1018 hPa | 0 mm | - | - | - |
| 1777703430 | 18.33° C | 48% | 1017.9 hPa | 0 mm | - | - | - |
| 1777703129 | 17.78° C | 48% | 1018.1 hPa | 0 mm | - | - | - |
| 1777702829 | 17.78° C | 51% | 1018 hPa | 0 mm | - | - | - |
| 1777702529 | 16.11° C | 57% | 1017.9 hPa | 0 mm | - | - | - |
| 1777702228 | 16.11° C | 57% | 1018 hPa | 0 mm | - | - | - |
| 1777701928 | 15.56° C | 58% | 1017.9 hPa | 0 mm | - | - | - |
| 1777701628 | 14.44° C | 60% | 1018.1 hPa | 0 mm | - | - | - |
| 1777701328 | 13.89° C | 63% | 1018.1 hPa | 0 mm | - | - | - |
* Rain latest hour (hover to see other rain measurements)
** Current wind speed in m/s (hover to see current wind gust speed)